Flugplatz Weipertshofen (UL)

Hier findest Du alle Informationen zum Flugplatz Weipertshofen (UL).

Informationen für Piloten zum Flugplatz Weipertshofen

Hier findest Du alle relevanten Informationen, die Du als Pilot benötigst, um Weipertshofen anzufliegen.

Flugplatz: Weipertshofen ICAO-Code: UL Flugplatz
Frequenz Turm: 123.35 Mhz GAFOR Gebiet: 52
Frequenz Ground: 123.35 Mhz Mogas: ja
Platzrunde: N 2300 ft Landegebühr: 0 €
Platzhöhe: Sunrise: 07:01 Uhr UTC
Pisten: 11/29 - 450 m x 25 m, GRAS Sunset: 16:00 Uhr UTC

Mitglieder, die in Weipertshofen fliegen

Flugwetter am Flugplatz Weipertshofen

Die METAR Information stammen aus EDDS (79.34 km entfernt).

METAR Code:
2021/01/17 20:50
EDDS 172050Z 24003KT 190V280 9999 -SN FEW008 BKN011 BKN016 01/00 Q1022 R25/29//94 NOSIG

Flugschulen am Flugplatz Weipertshofen

Am Flugplatz Weipertshofen gibt es leider keine Flugschule.

Benachbarte Flugplätze und Flugschulen

Es gibt 25 weitere Flugplätze in einem Umkreis von 50 km um den Flugplatz Weipertshofen.

Jetzt anmelden

Passwort vergessen

Umfrage Archiv

Seid Ihr aufgrund von Corona im Jahr 2020 mehr oder weniger geflogen als im Jahr zuvor?

weniger
44.9 %
gleich viel
34.7 %
mehr
20.4 %
Stimmen: 49 | Diskussion
Anzeige: Roland Aircraft
Statistik Alle Mitglieder

Aktuell sind 45 Besucher online, davon 4 Mitglieder und 41 Gäste.


Mitglieder online:
924driver  trauntaler  Maraio  raller 

Anzeige: VFR Sprechfunk Simulator


Anzeige: Pocket FMS